Time;durP1;ratioP1;P1;durP2;ratioP2;P2;SDS_P1;SDS_P2;PMS_P1;PMS_P2;Temp;Humidity;BMP_temperature;BMP_pressure;BME280_temperature;BME280_humidity;BME280_pressure;Samples;Min_cycle;Max_cycle;Signal;HPM_P1;HPM_P2
2022/07/25 00:00:29;;;;;;;54.83;52.72;;;27.00;58.70;;;;;;5015676;28;20204;-87
2022/07/25 00:02:55;;;;;;;57.85;55.42;;;27.00;58.40;;;;;;5017836;28;20236;-87
2022/07/25 00:05:20;;;;;;;55.47;53.35;;;27.00;58.40;;;;;;5010434;28;20248;-87
2022/07/25 00:07:46;;;;;;;54.60;52.40;;;27.00;58.70;;;;;;5012967;28;20209;-87
2022/07/25 00:10:12;;;;;;;54.53;52.40;;;27.00;59.10;;;;;;5014963;28;20186;-86
2022/07/25 00:12:38;;;;;;;52.72;50.55;;;26.90;58.80;;;;;;5018847;28;20186;-87
2022/07/25 00:15:04;;;;;;;52.60;50.50;;;26.70;59.80;;;;;;5019515;28;20676;-86
2022/07/25 00:17:30;;;;;;;52.10;49.90;;;26.50;60.30;;;;;;4990058;28;20206;-87
2022/07/25 00:19:56;;;;;;;50.22;48.28;;;26.30;61.00;;;;;;4989622;28;20237;-87
2022/07/25 00:22:21;;;;;;;47.55;45.63;;;26.30;61.70;;;;;;5017746;28;20186;-86
2022/07/25 00:24:47;;;;;;;48.45;46.42;;;26.20;62.20;;;;;;4994241;28;20276;-87
2022/07/25 00:27:13;;;;;;;47.70;45.70;;;26.20;62.00;;;;;;4984889;28;20220;-85
2022/07/25 00:29:39;;;;;;;45.95;44.05;;;26.20;62.20;;;;;;5017496;28;20249;-86
2022/07/25 00:32:05;;;;;;;44.40;42.60;;;26.00;63.30;;;;;;5016981;28;20200;-87
2022/07/25 00:34:30;;;;;;;47.40;45.53;;;26.00;64.10;;;;;;4994994;28;20190;-87
2022/07/25 00:36:56;;;;;;;46.05;44.17;;;26.10;63.40;;;;;;5011935;28;20239;-86
2022/07/25 00:39:22;;;;;;;48.67;46.58;;;26.20;63.40;;;;;;5012080;28;20275;-87
2022/07/25 00:41:48;;;;;;;49.55;47.55;;;26.20;62.90;;;;;;5014398;28;20253;-87
2022/07/25 00:44:27;;;;;;;50.33;48.40;;;26.30;62.30;;;;;;4999346;28;20217;-86
2022/07/25 00:46:53;;;;;;;50.30;48.30;;;26.30;62.30;;;;;;5016994;28;20292;-87
2022/07/25 00:49:20;;;;;;;47.35;45.55;;;26.30;62.50;;;;;;5019212;28;20676;-86
2022/07/25 00:51:45;;;;;;;47.10;45.20;;;26.30;62.30;;;;;;5001492;28;20266;-86
2022/07/25 00:54:12;;;;;;;45.97;44.17;;;26.20;63.00;;;;;;4992894;28;20213;-87
2022/07/25 00:56:38;;;;;;;45.10;43.20;;;26.00;63.90;;;;;;4995647;28;20218;-86
2022/07/25 00:59:03;;;;;;;46.70;44.90;;;26.10;63.30;;;;;;5013758;28;20197;-86
2022/07/25 01:01:29;;;;;;;46.60;44.63;;;26.20;63.20;;;;;;5017229;28;20553;-88
2022/07/25 01:03:55;;;;;;;47.17;45.35;;;26.00;64.10;;;;;;5016589;28;20256;-86
2022/07/25 01:06:21;;;;;;;47.08;45.17;;;25.90;64.00;;;;;;5000227;28;20219;-87
2022/07/25 01:08:48;;;;;;;44.72;43.03;;;25.80;64.20;;;;;;5017308;28;20196;-88
2022/07/25 01:11:14;;;;;;;45.58;43.78;;;25.90;63.90;;;;;;4998708;28;20280;-87
2022/07/25 01:13:40;;;;;;;45.63;43.83;;;25.90;63.70;;;;;;5010604;28;20181;-86
2022/07/25 01:16:06;;;;;;;45.90;44.00;;;26.00;63.80;;;;;;4998238;28;20671;-87
2022/07/25 01:18:33;;;;;;;44.90;42.97;;;26.00;64.10;;;;;;5021827;28;20760;-85
2022/07/25 01:20:59;;;;;;;46.08;44.28;;;26.00;63.80;;;;;;5016261;28;20186;-86
2022/07/25 01:23:25;;;;;;;45.17;43.38;;;25.90;63.50;;;;;;5016683;28;20241;-86
2022/07/25 01:25:51;;;;;;;44.40;42.60;;;25.90;63.40;;;;;;5023103;28;20201;-86
2022/07/25 01:28:17;;;;;;;46.63;44.72;;;25.90;63.50;;;;;;5000467;28;20229;-87
2022/07/25 01:30:43;;;;;;;42.33;40.60;;;25.80;63.80;;;;;;5004859;28;20740;-86
2022/07/25 01:33:09;;;;;;;40.50;38.90;;;25.60;65.00;;;;;;5018218;28;20645;-86
2022/07/25 01:35:34;;;;;;;42.55;40.55;;;25.50;65.40;;;;;;5013501;28;20202;-86
2022/07/25 01:38:00;;;;;;;40.03;38.42;;;25.40;65.70;;;;;;4996074;28;20724;-87
2022/07/25 01:40:26;;;;;;;40.33;38.63;;;25.40;65.60;;;;;;5015421;28;20193;-87
2022/07/25 01:42:52;;;;;;;41.63;39.92;;;25.40;65.00;;;;;;4982958;28;20786;-88
2022/07/25 01:45:17;;;;;;;40.30;38.72;;;25.50;64.70;;;;;;4982952;28;20233;-86
2022/07/25 01:47:43;;;;;;;40.85;39.03;;;25.40;64.80;;;;;;5004445;28;20209;-88
2022/07/25 01:50:09;;;;;;;41.50;39.88;;;25.60;64.20;;;;;;5017790;28;20186;-85
2022/07/25 01:52:36;;;;;;;43.30;41.50;;;25.40;64.60;;;;;;5021173;28;20205;-88
2022/07/25 01:55:01;;;;;;;42.15;40.45;;;25.50;64.30;;;;;;5032736;28;20198;-88
2022/07/25 01:57:27;;;;;;;40.45;38.65;;;25.40;64.60;;;;;;5038348;28;20313;-87
2022/07/25 01:59:53;;;;;;;42.78;40.97;;;25.50;64.30;;;;;;5019490;28;20190;-88
2022/07/25 02:02:18;;;;;;;40.33;38.63;;;25.60;64.30;;;;;;5019248;28;20194;-87
2022/07/25 02:04:44;;;;;;;41.33;39.63;;;25.40;65.00;;;;;;4995357;28;20209;-87
2022/07/25 02:07:10;;;;;;;41.75;40.05;;;25.30;64.90;;;;;;5019971;28;20206;-87
2022/07/25 02:09:35;;;;;;;42.75;41.05;;;25.30;64.90;;;;;;5016222;28;20190;-86
2022/07/25 02:12:01;;;;;;;42.35;40.65;;;25.20;65.00;;;;;;4991811;28;20193;-87
2022/07/25 02:14:27;;;;;;;44.10;42.22;;;25.20;65.20;;;;;;5003711;28;20209;-87
2022/07/25 02:16:52;;;;;;;42.75;40.97;;;25.00;66.00;;;;;;5020470;28;20205;-86
2022/07/25 02:19:18;;;;;;;42.33;40.58;;;24.90;67.00;;;;;;5006243;28;20213;-87
2022/07/25 02:21:44;;;;;;;41.83;40.20;;;24.80;67.10;;;;;;5017306;28;20201;-86
2022/07/25 02:24:09;;;;;;;40.72;38.97;;;24.90;66.50;;;;;;5014095;28;20836;-87
2022/07/25 02:26:35;;;;;;;42.50;40.80;;;25.00;66.40;;;;;;5017177;28;20241;-87
2022/07/25 02:29:01;;;;;;;42.33;40.50;;;24.90;66.40;;;;;;5014096;28;20783;-87
2022/07/25 02:31:27;;;;;;;39.05;37.45;;;25.00;66.30;;;;;;5014825;28;20229;-88
2022/07/25 02:33:52;;;;;;;40.35;38.65;;;25.00;65.60;;;;;;4992469;28;20201;-89
2022/07/25 02:36:18;;;;;;;41.25;39.53;;;25.00;66.00;;;;;;5013631;28;20630;-87
2022/07/25 02:38:44;;;;;;;42.25;40.38;;;25.00;66.10;;;;;;5002819;28;20339;-87
2022/07/25 02:41:10;;;;;;;39.58;37.97;;;24.90;66.20;;;;;;5015721;28;20205;-86
2022/07/25 02:43:35;;;;;;;41.60;39.80;;;24.90;66.20;;;;;;5020329;28;20197;-87
2022/07/25 02:46:01;;;;;;;42.03;40.25;;;24.80;66.20;;;;;;5014696;28;20209;-88
2022/07/25 02:48:27;;;;;;;42.15;40.38;;;24.90;66.40;;;;;;5017526;28;20216;-87
2022/07/25 02:50:52;;;;;;;43.00;41.10;;;24.90;66.30;;;;;;5020317;28;20216;-87
2022/07/25 02:53:18;;;;;;;43.90;41.70;;;24.90;66.10;;;;;;5018462;28;20267;-88
2022/07/25 02:55:44;;;;;;;42.75;40.83;;;24.90;66.20;;;;;;5008039;28;20612;-87
2022/07/25 02:58:10;;;;;;;42.95;41.05;;;24.80;66.30;;;;;;5027197;28;20228;-87
2022/07/25 03:00:36;;;;;;;43.05;41.03;;;24.80;66.40;;;;;;4986503;28;20220;-87
2022/07/25 03:03:02;;;;;;;42.80;41.00;;;24.80;66.40;;;;;;5008023;28;20194;-88
2022/07/25 03:05:28;;;;;;;42.80;41.10;;;24.70;66.60;;;;;;5013801;28;20209;-88
2022/07/25 03:07:53;;;;;;;41.58;39.78;;;24.80;66.20;;;;;;5014454;28;20231;-87
2022/07/25 03:10:19;;;;;;;40.78;38.97;;;24.70;66.20;;;;;;5001218;28;20253;-86
2022/07/25 03:12:45;;;;;;;40.58;38.67;;;24.70;66.40;;;;;;5003380;28;20202;-86
2022/07/25 03:15:11;;;;;;;41.15;39.47;;;24.70;66.70;;;;;;5015864;28;20280;-87
2022/07/25 03:17:37;;;;;;;41.92;40.22;;;24.70;66.40;;;;;;4998712;28;20576;-86
2022/07/25 03:20:05;;;;;;;42.70;40.90;;;24.70;66.30;;;;;;4996859;28;20186;-87
2022/07/25 03:22:31;;;;;;;40.47;38.83;;;24.70;66.00;;;;;;5010059;28;20676;-86
2022/07/25 03:24:57;;;;;;;40.97;39.00;;;24.70;66.20;;;;;;4999431;28;20220;-86
2022/07/25 03:27:22;;;;;;;41.45;39.78;;;24.70;66.20;;;;;;4999269;28;20229;-87
2022/07/25 03:29:48;;;;;;;43.72;41.95;;;24.60;66.10;;;;;;4982990;28;20244;-86
2022/07/25 03:32:13;;;;;;;41.55;39.78;;;24.70;66.30;;;;;;4998896;28;20285;-87
2022/07/25 03:34:39;;;;;;;43.33;41.28;;;24.50;66.50;;;;;;5007062;28;20201;-87
2022/07/25 03:37:05;;;;;;;41.78;40.08;;;24.50;66.80;;;;;;5021060;28;20209;-87
2022/07/25 03:39:31;;;;;;;44.55;42.75;;;24.40;67.00;;;;;;5022344;28;20194;-87
2022/07/25 03:41:57;;;;;;;43.80;41.80;;;24.30;67.40;;;;;;5014574;28;20189;-89
2022/07/25 03:44:25;;;;;;;42.80;41.03;;;24.30;67.50;;;;;;5021051;28;20296;-87
2022/07/25 03:46:51;;;;;;;43.55;41.75;;;24.40;67.30;;;;;;5005614;28;20206;-88
2022/07/25 03:49:18;;;;;;;41.92;40.22;;;24.30;67.70;;;;;;5013226;28;20189;-86
2022/07/25 03:51:44;;;;;;;41.65;40.00;;;24.30;67.60;;;;;;4995510;28;20190;-86
2022/07/25 03:54:12;;;;;;;42.33;40.33;;;24.10;68.70;;;;;;4990263;28;20221;-88
2022/07/25 03:56:41;;;;;;;42.60;40.90;;;24.10;68.80;;;;;;5017105;28;20209;-87
2022/07/25 03:59:07;;;;;;;42.72;40.92;;;24.10;69.00;;;;;;5006459;28;20232;-88
2022/07/25 04:01:34;;;;;;;42.00;40.20;;;24.00;68.80;;;;;;5015730;28;20252;-86
2022/07/25 04:04:00;;;;;;;44.03;42.03;;;24.00;68.80;;;;;;5015714;28;20212;-87
2022/07/25 04:06:27;;;;;;;42.80;40.90;;;24.10;68.50;;;;;;5010013;28;20802;-87
2022/07/25 04:08:53;;;;;;;42.38;40.58;;;24.10;68.20;;;;;;5003251;28;20197;-87
2022/07/25 04:11:19;;;;;;;40.83;39.10;;;24.10;68.20;;;;;;5014965;28;20186;-86
2022/07/25 04:13:45;;;;;;;43.35;41.33;;;24.00;68.20;;;;;;5015610;28;20201;-87
2022/07/25 04:16:11;;;;;;;41.97;40.17;;;24.10;68.00;;;;;;5008218;28;20191;-86
2022/07/25 04:18:37;;;;;;;43.13;41.00;;;24.00;68.30;;;;;;4999087;28;20260;-86
2022/07/25 04:21:04;;;;;;;44.45;42.47;;;24.10;67.90;;;;;;5007377;28;20721;-87
2022/07/25 04:23:30;;;;;;;45.65;43.20;;;24.00;67.80;;;;;;5014847;28;20186;-87
2022/07/25 04:25:56;;;;;;;44.05;42.13;;;24.10;67.30;;;;;;5009957;28;20210;-87
2022/07/25 04:28:25;;;;;;;45.00;42.67;;;24.10;68.10;;;;;;5007581;28;20205;-87
2022/07/25 04:30:52;;;;;;;43.60;41.70;;;24.00;67.80;;;;;;5003303;28;20194;-87
2022/07/25 04:33:18;;;;;;;43.05;41.00;;;23.90;68.90;;;;;;4985080;28;20244;-87
2022/07/25 04:35:44;;;;;;;43.45;41.45;;;23.80;68.50;;;;;;4997771;28;20217;-87
2022/07/25 04:38:10;;;;;;;44.42;42.13;;;23.80;68.90;;;;;;4988722;28;20280;-87
2022/07/25 04:40:37;;;;;;;42.78;40.67;;;23.90;68.80;;;;;;5005562;28;20226;-88
2022/07/25 04:43:03;;;;;;;44.63;42.63;;;23.90;68.40;;;;;;5026395;28;20185;-87
2022/07/25 04:45:30;;;;;;;45.50;43.60;;;24.00;68.00;;;;;;5019082;28;20681;-87
2022/07/25 04:47:55;;;;;;;47.25;45.22;;;24.00;67.70;;;;;;5004723;28;20209;-89
2022/07/25 04:50:21;;;;;;;48.25;46.17;;;24.20;66.80;;;;;;5014694;28;20325;-87
2022/07/25 04:52:47;;;;;;;49.53;47.22;;;24.30;66.90;;;;;;4992704;28;20210;-87
2022/07/25 04:55:13;;;;;;;47.05;44.63;;;24.20;67.00;;;;;;5012431;28;20181;-87
2022/07/25 04:57:38;;;;;;;46.42;44.42;;;24.20;67.50;;;;;;5004716;28;20217;-87
2022/07/25 05:00:06;;;;;;;45.78;43.53;;;24.10;67.70;;;;;;4963601;28;20240;-87
2022/07/25 05:02:33;;;;;;;44.28;42.10;;;24.20;67.30;;;;;;5001709;28;20190;-87
2022/07/25 05:05:00;;;;;;;44.05;42.20;;;24.20;67.30;;;;;;4995997;28;20218;-87
2022/07/25 05:07:26;;;;;;;45.42;43.22;;;24.10;68.00;;;;;;5003620;28;20294;-87
2022/07/25 05:09:51;;;;;;;45.28;43.38;;;24.10;68.10;;;;;;5000586;28;20218;-88
2022/07/25 05:12:17;;;;;;;43.92;42.10;;;24.00;67.90;;;;;;4967759;28;20675;-88
2022/07/25 05:14:43;;;;;;;45.25;43.25;;;24.10;67.80;;;;;;5004692;28;20221;-87
2022/07/25 05:17:09;;;;;;;45.92;43.88;;;24.20;67.80;;;;;;5009430;28;20216;-86
2022/07/25 05:19:35;;;;;;;45.42;43.53;;;24.20;68.30;;;;;;5018404;28;20227;-86
2022/07/25 05:22:00;;;;;;;45.85;43.80;;;24.20;68.30;;;;;;5018239;28;20197;-86
2022/07/25 05:24:26;;;;;;;44.35;42.53;;;24.20;68.60;;;;;;5011513;28;20210;-87
2022/07/25 05:26:52;;;;;;;44.90;42.97;;;24.30;68.80;;;;;;5013631;28;20237;-87
2022/07/25 05:29:18;;;;;;;48.17;45.97;;;24.40;68.50;;;;;;4981465;28;20194;-87
2022/07/25 05:31:44;;;;;;;48.15;46.08;;;24.50;68.00;;;;;;4995929;28;20182;-87
2022/07/25 05:34:10;;;;;;;45.47;43.55;;;24.40;68.30;;;;;;5009714;28;20266;-86
2022/07/25 05:36:35;;;;;;;47.92;45.83;;;24.40;68.30;;;;;;5015200;28;20208;-86
2022/07/25 05:39:02;;;;;;;45.80;43.65;;;24.30;71.70;;;;;;5011131;28;20229;-87
2022/07/25 05:41:27;;;;;;;45.85;43.85;;;24.20;71.40;;;;;;5013311;28;20193;-86
2022/07/25 05:43:53;;;;;;;48.92;46.47;;;24.40;70.90;;;;;;5002388;28;20191;-87
2022/07/25 05:46:19;;;;;;;50.90;48.55;;;24.50;70.50;;;;;;5011704;28;20292;-86
2022/07/25 05:48:44;;;;;;;52.25;49.88;;;24.50;70.50;;;;;;5008677;28;20205;-88
2022/07/25 05:51:10;;;;;;;54.22;51.83;;;24.30;69.00;;;;;;5011450;28;20686;-88
2022/07/25 05:53:37;;;;;;;64.93;62.28;;;24.20;68.90;;;;;;5011777;28;20186;-87
2022/07/25 05:56:03;;;;;;;79.60;76.50;;;24.10;69.40;;;;;;5008124;28;20960;-87
2022/07/25 05:58:29;;;;;;;129.13;124.63;;;24.00;70.00;;;;;;4996062;28;20693;-88
2022/07/25 06:00:55;;;;;;;125.05;120.80;;;23.80;71.90;;;;;;4990167;28;20232;-89
2022/07/25 06:03:20;;;;;;;113.07;109.03;;;23.80;72.10;;;;;;5010310;28;20204;-87
2022/07/25 06:05:46;;;;;;;114.25;110.18;;;23.90;70.60;;;;;;4990688;28;20226;-88
2022/07/25 06:08:13;;;;;;;109.15;105.43;;;24.10;70.80;;;;;;5011514;28;20206;-87
2022/07/25 06:10:39;;;;;;;118.55;114.47;;;24.20;71.10;;;;;;5008756;28;20218;-86
2022/07/25 06:13:05;;;;;;;127.47;122.90;;;24.20;70.60;;;;;;5008972;28;20554;-87
2022/07/25 06:15:31;;;;;;;119.57;115.38;;;24.10;71.00;;;;;;5011424;28;20200;-87
2022/07/25 06:17:57;;;;;;;121.28;116.95;;;24.20;70.10;;;;;;5010399;28;20234;-87
2022/07/25 06:20:23;;;;;;;103.70;100.00;;;24.20;70.20;;;;;;5007705;28;20446;-87
2022/07/25 06:22:49;;;;;;;93.53;89.88;;;24.30;69.70;;;;;;5010125;28;20193;-87
2022/07/25 06:25:14;;;;;;;95.22;91.57;;;24.40;69.70;;;;;;5010566;28;20217;-87
2022/07/25 06:27:41;;;;;;;93.28;89.93;;;24.40;70.10;;;;;;5018721;28;20270;-88
2022/07/25 06:30:08;;;;;;;93.40;89.90;;;24.40;69.70;;;;;;5011830;28;20198;-87
2022/07/25 06:32:33;;;;;;;89.43;86.05;;;24.40;69.30;;;;;;4991207;28;20286;-87
2022/07/25 06:34:59;;;;;;;65.72;62.90;;;24.60;69.90;;;;;;5006964;28;20261;-88
2022/07/25 06:37:25;;;;;;;59.15;56.55;;;24.70;67.80;;;;;;5009058;28;20245;-88
2022/07/25 06:39:51;;;;;;;74.07;71.25;;;24.80;67.00;;;;;;5011300;28;20219;-87
2022/07/25 06:42:17;;;;;;;56.75;54.25;;;24.80;68.00;;;;;;5006188;28;20282;-87
2022/07/25 06:44:43;;;;;;;57.97;55.65;;;24.90;66.60;;;;;;5007244;28;20213;-87
2022/07/25 06:47:11;;;;;;;58.75;56.25;;;25.00;66.20;;;;;;5005378;28;20287;-88
2022/07/25 06:49:37;;;;;;;61.58;59.05;;;25.10;65.10;;;;;;5004750;28;20189;-88
2022/07/25 06:52:05;;;;;;;56.92;54.63;;;25.10;66.00;;;;;;5006662;28;20194;-88
2022/07/25 06:54:30;;;;;;;54.28;51.90;;;25.30;65.40;;;;;;5005297;28;20277;-88
2022/07/25 06:56:56;;;;;;;52.13;49.78;;;25.50;64.30;;;;;;5008096;28;20309;-89
2022/07/25 06:59:22;;;;;;;52.08;49.92;;;25.60;62.90;;;;;;5006638;28;20193;-87
2022/07/25 07:01:47;;;;;;;53.05;50.80;;;25.70;62.20;;;;;;5008574;28;20279;-88
2022/07/25 07:04:13;;;;;;;54.03;51.72;;;25.80;61.70;;;;;;5008283;28;20328;-88
2022/07/25 07:06:38;;;;;;;54.55;52.15;;;25.90;60.90;;;;;;5005685;28;20260;-87
2022/07/25 07:09:05;;;;;;;54.15;51.78;;;25.80;60.00;;;;;;5004368;28;20269;-89
2022/07/25 07:11:30;;;;;;;53.60;51.15;;;25.80;60.90;;;;;;4971117;28;20189;-88
2022/07/25 07:13:56;;;;;;;54.65;52.45;;;25.80;60.30;;;;;;5005882;28;20240;-87
2022/07/25 07:16:22;;;;;;;52.67;50.58;;;25.90;60.40;;;;;;5008089;28;20210;-87
2022/07/25 07:18:47;;;;;;;52.40;50.03;;;26.00;60.40;;;;;;5007656;28;20201;-87
2022/07/25 07:21:13;;;;;;;55.45;52.90;;;26.10;60.10;;;;;;5005924;28;20190;-88
2022/07/25 07:23:39;;;;;;;50.40;48.35;;;26.30;59.30;;;;;;5007820;28;20183;-88
2022/07/25 07:26:05;;;;;;;54.90;52.60;;;26.50;58.10;;;;;;5005657;28;20263;-89
2022/07/25 07:28:30;;;;;;;55.85;53.60;;;26.50;57.80;;;;;;5014517;28;20204;-89
2022/07/25 07:30:56;;;;;;;53.00;50.75;;;26.60;58.30;;;;;;5025384;28;20208;-89
2022/07/25 07:33:22;;;;;;;53.33;51.13;;;26.70;57.00;;;;;;4999758;28;20203;-89
2022/07/25 07:35:48;;;;;;;55.75;53.28;;;26.70;56.80;;;;;;5004319;28;20239;-88
2022/07/25 07:38:13;;;;;;;56.90;54.55;;;26.80;56.60;;;;;;4994205;28;20208;-88
2022/07/25 07:40:39;;;;;;;56.08;53.78;;;26.70;57.80;;;;;;4989714;28;20190;-88
2022/07/25 07:43:05;;;;;;;52.33;50.13;;;26.70;58.50;;;;;;5006175;28;20209;-87
2022/07/25 07:45:31;;;;;;;49.35;47.25;;;26.90;57.80;;;;;;5008478;28;20217;-88
2022/07/25 07:47:57;;;;;;;49.65;47.55;;;27.20;57.80;;;;;;4987282;28;20202;-90
2022/07/25 07:50:27;;;;;;;52.33;50.15;;;27.30;55.70;;;;;;5011376;28;20275;-87
2022/07/25 07:52:54;;;;;;;51.92;49.65;;;27.40;57.10;;;;;;5008408;28;20255;-88
2022/07/25 07:58:06;;;;;;;63.50;60.83;;;27.70;55.10;;;;;;5009548;28;20213;-87
2022/07/25 08:00:34;;;;;;;56.58;54.13;;;27.80;54.90;;;;;;5004384;28;20181;-89
2022/07/25 08:03:01;;;;;;;57.67;55.28;;;27.80;55.10;;;;;;5008010;28;20189;-89
2022/07/25 08:05:30;;;;;;;56.65;54.20;;;27.90;55.90;;;;;;5007099;28;20783;-89
2022/07/25 08:07:58;;;;;;;64.10;61.53;;;28.10;56.20;;;;;;5007816;28;20237;-88
2022/07/25 08:10:27;;;;;;;64.68;62.00;;;28.30;55.00;;;;;;5006422;28;20188;-88
2022/07/25 08:12:53;;;;;;;68.72;66.18;;;28.30;54.90;;;;;;4991179;28;20182;-89
2022/07/25 08:15:20;;;;;;;63.42;61.03;;;28.40;54.10;;;;;;5005405;28;20265;-87
2022/07/25 08:17:47;;;;;;;64.22;61.83;;;28.50;52.00;;;;;;5007892;28;20217;-87
2022/07/25 08:20:13;;;;;;;69.43;66.13;;;28.50;52.70;;;;;;5009157;28;20578;-87
2022/07/25 08:22:43;;;;;;;70.82;67.95;;;28.60;53.30;;;;;;5006638;28;20268;-88
2022/07/25 08:25:12;;;;;;;66.97;63.80;;;28.70;52.50;;;;;;5005942;28;20221;-87
2022/07/25 08:27:38;;;;;;;72.80;70.05;;;28.80;52.20;;;;;;5007337;28;20198;-88
2022/07/25 08:30:06;;;;;;;64.40;61.70;;;28.90;52.30;;;;;;5004284;28;20188;-88
2022/07/25 08:32:33;;;;;;;64.03;61.13;;;29.10;52.70;;;;;;5005933;28;20192;-87
2022/07/25 08:35:00;;;;;;;62.90;60.03;;;29.30;52.10;;;;;;4992909;28;20190;-88
2022/07/25 08:37:26;;;;;;;60.67;58.20;;;29.40;51.30;;;;;;4990934;28;20213;-88
2022/07/25 08:39:52;;;;;;;62.00;59.50;;;29.40;50.90;;;;;;5003631;28;20250;-88
2022/07/25 08:42:19;;;;;;;61.35;58.75;;;29.50;51.70;;;;;;4990373;28;20217;-88
2022/07/25 08:44:55;;;;;;;63.08;60.58;;;29.50;49.40;;;;;;4992016;28;20213;-89
2022/07/25 08:47:21;;;;;;;60.08;57.67;;;29.70;50.80;;;;;;5002723;28;20206;-88
2022/07/25 08:49:48;;;;;;;63.53;61.03;;;29.90;49.80;;;;;;5007913;28;20234;-88
2022/07/25 08:52:14;;;;;;;60.45;58.05;;;29.90;50.20;;;;;;5007167;28;20190;-88
2022/07/25 08:54:40;;;;;;;47.72;45.63;;;30.10;48.30;;;;;;5008659;28;20189;-87
2022/07/25 08:57:06;;;;;;;49.28;46.95;;;30.20;46.60;;;;;;5003152;28;20222;-88
2022/07/25 08:59:32;;;;;;;48.30;46.10;;;30.10;46.80;;;;;;4989568;28;20244;-88
2022/07/25 09:02:01;;;;;;;51.38;49.08;;;30.30;45.70;;;;;;4987395;28;20198;-88
2022/07/25 09:04:28;;;;;;;50.60;48.20;;;30.40;45.80;;;;;;5003720;28;20214;-87
2022/07/25 09:06:53;;;;;;;49.63;47.42;;;30.50;44.60;;;;;;5008602;28;20209;-89
2022/07/25 09:09:28;;;;;;;50.90;48.83;;;30.50;45.40;;;;;;5000200;28;20258;-87
2022/07/25 09:11:54;;;;;;;53.10;50.90;;;30.50;44.80;;;;;;5000535;28;20177;-90
2022/07/25 09:14:20;;;;;;;53.20;50.90;;;30.80;44.20;;;;;;5006848;28;20186;-87
2022/07/25 09:16:46;;;;;;;56.08;53.78;;;30.80;43.60;;;;;;5018808;28;20236;-88
2022/07/25 09:19:16;;;;;;;58.80;56.50;;;31.00;44.60;;;;;;5003895;28;20522;-87
2022/07/25 09:21:44;;;;;;;58.92;56.63;;;31.20;43.60;;;;;;5020175;28;20213;-87
2022/07/25 09:24:12;;;;;;;60.92;58.65;;;31.40;43.00;;;;;;4988856;28;20209;-87
2022/07/25 09:26:43;;;;;;;59.70;57.30;;;31.40;42.50;;;;;;4965809;28;20206;-89
2022/07/25 09:29:15;;;;;;;70.55;67.85;;;31.60;43.10;;;;;;4999464;28;20198;-89
2022/07/25 09:31:41;;;;;;;68.85;66.35;;;31.80;41.50;;;;;;4999238;28;20151;-88
2022/07/25 09:34:09;;;;;;;82.93;79.93;;;31.70;41.30;;;;;;4998731;28;20581;-88
2022/07/25 09:36:38;;;;;;;82.45;79.53;;;32.00;41.50;;;;;;4981337;28;20701;-88
2022/07/25 09:39:05;;;;;;;105.38;101.80;;;32.10;41.20;;;;;;4998562;28;20178;-87
2022/07/25 09:41:38;;;;;;;100.55;97.10;;;32.30;40.40;;;;;;4999535;28;20174;-88
2022/07/25 09:44:18;;;;;;;96.32;93.05;;;32.30;39.70;;;;;;4982603;28;20178;-88
2022/07/25 09:46:44;;;;;;;95.97;92.53;;;32.40;39.10;;;;;;5000782;28;20202;-86
2022/07/25 09:49:13;;;;;;;66.70;64.10;;;32.50;38.50;;;;;;5000438;28;20205;-89
2022/07/25 09:51:39;;;;;;;46.70;44.70;;;32.70;36.90;;;;;;5000471;28;20230;-88
2022/07/25 09:54:05;;;;;;;79.65;76.85;;;32.80;36.20;;;;;;5000882;28;20234;-89
2022/07/25 09:56:32;;;;;;;62.53;60.00;;;33.20;38.10;;;;;;4983036;28;20194;-89
2022/07/25 09:58:57;;;;;;;40.08;38.38;;;33.40;36.70;;;;;;4982933;28;20248;-89
2022/07/25 10:01:34;;;;;;;39.08;37.08;;;33.70;35.60;;;;;;4999696;28;20179;-88
2022/07/25 10:04:21;;;;;;;35.40;33.80;;;33.70;34.70;;;;;;5008818;28;20177;-88
2022/07/25 10:07:00;;;;;;;37.03;35.33;;;33.50;33.70;;;;;;5011561;28;20284;-88
2022/07/25 10:09:25;;;;;;;37.35;35.65;;;33.70;35.20;;;;;;5013460;28;20235;-88
2022/07/25 10:12:09;;;;;;;38.70;37.13;;;34.00;35.00;;;;;;4993956;28;20186;-87
2022/07/25 10:14:37;;;;;;;41.03;39.33;;;34.00;34.30;;;;;;5025207;28;20196;-88
2022/07/25 10:17:03;;;;;;;40.45;38.60;;;33.70;35.80;;;;;;5057149;28;20192;-94
2022/07/25 10:19:44;;;;;;;39.70;37.90;;;33.50;35.60;;;;;;5036858;28;20205;-88
2022/07/25 10:22:10;;;;;;;37.78;36.28;;;33.60;35.30;;;;;;5002210;28;20253;-87
2022/07/25 10:24:37;;;;;;;38.42;36.83;;;33.30;35.60;;;;;;5011678;28;20210;-88
2022/07/25 10:27:08;;;;;;;38.22;36.58;;;33.50;35.70;;;;;;5032522;28;20299;-88
2022/07/25 10:29:35;;;;;;;40.13;38.13;;;33.60;35.50;;;;;;5009245;28;20180;-88
2022/07/25 10:32:07;;;;;;;39.97;38.17;;;33.70;34.80;;;;;;5013577;28;20256;-88
2022/07/25 10:34:34;;;;;;;39.15;37.53;;;33.60;34.70;;;;;;5005410;28;20205;-88
2022/07/25 10:37:19;;;;;;;45.42;43.42;;;33.50;34.80;;;;;;5019384;28;20224;-88
2022/07/25 10:39:47;;;;;;;40.40;38.53;;;33.50;36.60;;;;;;5018810;28;20254;-88
2022/07/25 10:42:20;;;;;;;39.45;37.45;;;33.90;34.60;;;;;;5018323;28;20177;-88
2022/07/25 10:44:53;;;;;;;41.88;39.97;;;33.80;35.40;;;;;;5018454;28;20220;-88
2022/07/25 10:47:23;;;;;;;42.53;40.78;;;34.00;34.80;;;;;;5027425;28;20189;-88
2022/07/25 10:49:56;;;;;;;40.47;38.72;;;34.10;34.90;;;;;;5038302;28;20632;-88
2022/07/25 10:52:27;;;;;;;40.97;39.17;;;33.70;35.70;;;;;;5032833;28;20201;-87
2022/07/25 10:54:54;;;;;;;40.03;38.33;;;33.60;35.00;;;;;;5000571;28;20178;-87
2022/07/25 10:57:20;;;;;;;39.63;37.83;;;33.60;35.10;;;;;;5017366;28;20209;-89
2022/07/25 10:59:46;;;;;;;39.42;37.55;;;33.50;35.80;;;;;;5017805;28;20178;-87
2022/07/25 11:02:15;;;;;;;40.30;38.40;;;33.50;35.40;;;;;;5014656;28;20348;-89
2022/07/25 11:05:02;;;;;;;48.45;46.47;;;33.50;35.70;;;;;;4992869;28;20217;-89
2022/07/25 11:07:34;;;;;;;41.00;38.80;;;33.40;36.50;;;;;;5011471;28;20210;-88
2022/07/25 11:10:02;;;;;;;44.38;42.20;;;33.60;36.10;;;;;;4997646;28;20646;-89
2022/07/25 11:12:29;;;;;;;41.03;39.13;;;33.90;35.00;;;;;;4998299;28;20285;-89
2022/07/25 11:15:05;;;;;;;45.28;42.88;;;33.80;34.70;;;;;;4980081;28;20193;-90
2022/07/25 11:17:31;;;;;;;45.40;43.45;;;34.00;34.40;;;;;;4996183;28;20224;-89
2022/07/25 11:20:06;;;;;;;36.83;35.22;;;34.40;33.90;;;;;;4997597;28;20268;-89
2022/07/25 11:22:33;;;;;;;40.05;38.45;;;34.70;32.00;;;;;;4997776;28;20181;-88
2022/07/25 11:24:59;;;;;;;36.20;34.60;;;34.70;31.80;;;;;;5011405;28;20186;-88
2022/07/25 11:27:27;;;;;;;33.70;31.92;;;35.10;31.00;;;;;;5004053;28;20305;-87
2022/07/25 11:30:05;;;;;;;32.80;31.30;;;35.20;31.50;;;;;;5012201;28;20174;-88
2022/07/25 11:32:41;;;;;;;32.85;31.48;;;35.00;31.00;;;;;;5014073;28;20728;-88
2022/07/25 11:35:08;;;;;;;36.85;35.35;;;34.80;31.00;;;;;;5031821;28;20189;-91
2022/07/25 11:37:37;;;;;;;37.65;35.67;;;34.90;31.80;;;;;;4996052;28;20198;-88
2022/07/25 11:40:03;;;;;;;42.50;40.72;;;34.80;31.90;;;;;;4996231;28;20187;-89
2022/07/25 11:42:42;;;;;;;44.88;42.97;;;35.10;32.40;;;;;;4994463;28;20308;-89
2022/07/25 11:45:27;;;;;;;45.00;43.08;;;35.30;32.50;;;;;;5029202;28;20224;-88
2022/07/25 11:48:09;;;;;;;35.47;33.75;;;35.80;32.70;;;;;;5019181;28;20202;-87
2022/07/25 11:50:37;;;;;;;39.95;38.35;;;36.00;31.90;;;;;;5000970;28;20193;-90
2022/07/25 11:53:05;;;;;;;39.03;37.33;;;35.90;31.70;;;;;;4998230;28;20233;-91
2022/07/25 11:55:35;;;;;;;37.70;36.10;;;36.30;31.40;;;;;;5021220;28;20188;-87
2022/07/25 11:58:03;;;;;;;40.75;39.15;;;36.40;30.80;;;;;;5000034;28;20202;-88
2022/07/25 12:00:29;;;;;;;45.70;43.80;;;36.80;30.00;;;;;;4993015;28;20227;-89
2022/07/25 12:03:08;;;;;;;45.85;43.95;;;36.90;29.80;;;;;;5015944;28;20192;-89
2022/07/25 12:05:35;;;;;;;39.72;37.92;;;36.80;29.50;;;;;;4981547;28;20201;-88
2022/07/25 12:08:16;;;;;;;39.88;38.00;;;36.10;31.20;;;;;;5010647;28;20296;-88
2022/07/25 12:10:42;;;;;;;38.58;36.97;;;36.30;30.30;;;;;;5015284;28;20173;-88
2022/07/25 12:13:09;;;;;;;37.78;36.17;;;36.30;31.00;;;;;;5016082;28;20166;-88
2022/07/25 12:15:36;;;;;;;38.00;36.30;;;36.10;31.80;;;;;;5016122;28;20208;-88
2022/07/25 12:18:02;;;;;;;37.80;36.20;;;35.90;31.00;;;;;;5016972;28;20208;-89
2022/07/25 12:20:30;;;;;;;36.75;35.20;;;35.90;30.30;;;;;;5017371;28;20549;-89
2022/07/25 12:23:00;;;;;;;38.83;37.08;;;35.70;31.50;;;;;;5018137;28;20645;-88
2022/07/25 12:25:27;;;;;;;42.05;40.40;;;35.40;31.80;;;;;;5007201;28;20221;-92
2022/07/25 12:27:53;;;;;;;42.28;40.58;;;35.60;32.60;;;;;;4997332;28;20287;-88